Resolute — WTW2234 — position and weather

sailwx.info

Track history (hours):
 
Tides and Currents Weather Stations Pressure Air Temp Water Temp Dewpoint Dewpoint Depression Visibility Wind Speed Wind Dir Waves Ship Positions

Resolute

Owner: Providence Steamboat Co., PROVIDENCE, RI. More information available from US FCC via Universal Licensing System and Coast Guard Vessel Documentation Center.

Last reported at 2015-Mar-31 17:34 UTC. Time now 2015-Mar-31 18:09 UTC.
Position N 40°59' W 073°07'.

Length 30 m; draft 4 m.

Type: Tug. MMSI: 367091630.

Date/timePositionNaut miles runAvg speedWind from/ knotsBaromVisibWave heightAir tempDewpointWater temp
2015-Mar-31 17:34N 40°59' W 073°07'3 3.0
2015-Mar-31 16:32N 40°57' W 073°04'0 0.0
2015-Mar-31 15:14N 40°57' W 073°04'0 0.0
2015-Mar-31 14:29N 40°57' W 073°04'0 0.0
2015-Mar-31 13:16N 40°57' W 073°04'0 0.0
2015-Mar-31 12:33N 40°57' W 073°04'0 0.0
2015-Mar-31 10:21N 40°57' W 073°04'0 0.0
2015-Mar-31 07:08N 40°57' W 073°04'0 0.5
2015-Mar-31 06:30N 40°57' W 073°05'2 2.5
2015-Mar-31 05:34N 40°59' W 073°06'7 7.2
2015-Mar-31 04:33N 41°00' W 073°16'7 7.4
2015-Mar-31 03:33N 40°60' W 073°26'8 7.7
2015-Mar-31 02:33N 40°56' W 073°35'9 7.4
2015-Mar-31 01:23N 40°52' W 073°45'5 6.1
2015-Mar-31 00:31N 40°48' W 073°50'7 6.8
2015-Mar-30 23:33N 40°45' W 073°57'7 6.7
2015-Mar-30 22:33N 40°40' W 074°02'2 2.2
2015-Mar-30 21:34N 40°39' W 074°05'5 5.4
2015-Mar-30 20:33N 40°38' W 074°12'5 4.6
2015-Mar-30 19:32N 40°33' W 074°13'2 1.5
2015-Mar-30 18:28N 40°33' W 074°15'5 5.6
2015-Mar-30 17:33N 40°37' W 074°12'2 2.2
2015-Mar-30 16:34N 40°39' W 074°10'2 2.2
2015-Mar-30 15:33N 40°40' W 074°08'0 0.1
2015-Mar-30 14:33N 40°40' W 074°08'2 2.3
2015-Mar-30 13:33N 40°38' W 074°10'4 3.6
2015-Mar-30 12:33N 40°35' W 074°12'0 0.0
2015-Mar-30 08:15N 40°35' W 074°12'4 3.6
2015-Mar-30 07:17N 40°33' W 074°15'4 5.1
2015-Mar-30 06:32N 40°36' W 074°12'5 5.0
2015-Mar-30 05:33N 40°39' W 074°07'4 3.5
2015-Mar-30 04:33N 40°39' W 074°03'6 5.6
2015-Mar-30 03:33N 40°38' W 074°10'0 0.0
2015-Mar-30 02:33N 40°38' W 074°10'0 0.0
2015-Mar-30 01:33N 40°38' W 074°10'0 0.0
2015-Mar-30 00:33N 40°38' W 074°10'0 0.0
2015-Mar-29 23:34N 40°38' W 074°10'0 0.0
2015-Mar-29 22:33N 40°38' W 074°10'1 1.3
2015-Mar-29 21:33N 40°39' W 074°08'1 1.0
2015-Mar-29 20:34N 40°40' W 074°09'1 1.3
2015-Mar-29 19:34N 40°38' W 074°10'0 0.0
2015-Mar-29 18:33N 40°38' W 074°10'0 0.0
2015-Mar-29 17:33N 40°38' W 074°10'3 2.9
2015-Mar-29 16:33N 40°39' W 074°06'3 2.6
2015-Mar-29 15:33N 40°39' W 074°03'0 0.0
2015-Mar-29 14:33N 40°39' W 074°03'0 0.0
2015-Mar-29 13:33N 40°39' W 074°03'0 0.1
2015-Mar-29 12:34N 40°39' W 074°03'6 6.2
2015-Mar-29 11:33N 40°44' W 073°58'8 8.1
2015-Mar-29 10:33N 40°48' W 073°49'9 8.3
2015-Mar-29 09:30N 40°55' W 073°42'9 9.2
2015-Mar-29 08:33N 40°60' W 073°32'9 9.1
2015-Mar-29 07:34N 41°04' W 073°21'9 8.8
2015-Mar-29 06:33N 41°07' W 073°10'8 8.3
2015-Mar-29 05:32N 41°11' W 073°00'7 7.3
2015-Mar-29 04:34N 41°17' W 072°55'1 1.0
2015-Mar-29 03:13N 41°18' W 072°54'0 0.0
2015-Mar-29 01:23N 41°18' W 072°54'0 0.0
2015-Mar-29 00:04N 41°18' W 072°54'0 0.0
2015-Mar-28 23:14N 41°18' W 072°54'0 0.0
2015-Mar-28 21:15N 41°18' W 072°54'0 0.0
2015-Mar-28 20:27N 41°18' W 072°54'5 1.5
2015-Mar-28 17:18N 41°13' W 072°55'7 6.8
2015-Mar-28 16:15N 41°10' W 073°03'5 6.8
2015-Mar-28 15:33N 41°07' W 073°09'7 7.4
2015-Mar-28 14:33N 41°05' W 073°18'7 7.4
2015-Mar-28 13:33N 41°02' W 073°27'7 7.3
2015-Mar-28 12:33N 40°59' W 073°36'9 6.8
2015-Mar-28 11:12N 40°53' W 073°45'4 6.6
2015-Mar-28 10:33N 40°49' W 073°47'6 5.6
2015-Mar-28 09:33N 40°48' W 073°54'6 6.5
2015-Mar-28 08:33N 40°43' W 073°59'5 4.6
2015-Mar-28 07:33N 40°39' W 074°03'6 5.7
2015-Mar-28 06:33N 40°39' W 074°11'6 5.2
2015-Mar-28 05:24N 40°33' W 074°14'1 0.9
2015-Mar-28 04:29N 40°33' W 074°15'0 0.1
2015-Mar-28 03:34N 40°33' W 074°15'0 0.0
2015-Mar-28 02:33N 40°33' W 074°15'0 0.0
2015-Mar-28 01:31N 40°33' W 074°15'0 0.0
2015-Mar-28 00:33N 40°33' W 074°15'0 0.0
2015-Mar-27 23:33N 40°33' W 074°15'17141501.9
2015-Mar-27 22:25N 40°32' W 111°51'17141772.9
2015-Mar-27 21:27N 40°33' W 074°15'0 0.0
2015-Mar-27 20:32N 40°33' W 074°15'0 0.4
2015-Mar-27 19:28N 40°33' W 074°15'0 0.1
2015-Mar-27 17:33N 40°33' W 074°15'5 4.6
2015-Mar-27 16:33N 40°37' W 074°12'7 6.5
2015-Mar-27 15:33N 40°39' W 074°04'7 6.9
2015-Mar-27 14:34N 40°44' W 073°58'6 5.6
2015-Mar-27 13:27N 40°48' W 073°52'9 4.6
2015-Mar-27 11:25N 40°54' W 073°42'6 5.6
2015-Mar-27 10:22N 40°56' W 073°35'5 6.0
2015-Mar-27 09:33N 40°59' W 073°29'7 7.2
2015-Mar-27 08:33N 41°00' W 073°20'9 7.8
2015-Mar-27 07:23N 40°60' W 073°08'4 3.8
2015-Mar-27 06:25N 40°57' W 073°04'0 0.2
2015-Mar-27 05:25N 40°57' W 073°04'0 0.0
2015-Mar-27 03:27N 40°57' W 073°04'0 0.0
2015-Mar-27 02:24N 40°57' W 073°04'0 0.0
2015-Mar-27 01:09N 40°57' W 073°04'0 0.0
2015-Mar-26 20:19N 40°57' W 073°04'4 4.8
2015-Mar-26 19:31N 40°59' W 073°09'7 7.2
2015-Mar-26 18:33N 40°59' W 073°18'7 6.9
2015-Mar-26 17:33N 40°58' W 073°27'8 7.3
2015-Mar-26 16:26N 40°55' W 073°37'14 7.3
2015-Mar-26 14:32N 40°48' W 073°52'6 6.3
2015-Mar-26 13:33N 40°43' W 073°58'5 4.9
2015-Mar-26 12:33N 40°40' W 074°02'0 0.0
2015-Mar-26 11:33N 40°40' W 074°02'0 0.0
2015-Mar-26 10:33N 40°40' W 074°02'0 0.0
2015-Mar-26 09:33N 40°40' W 074°02'5 5.4
2015-Mar-26 08:34N 40°39' W 074°09'7 2.3
2015-Mar-26 05:27N 40°33' W 074°15'6 6.9
2015-Mar-26 04:33N 40°39' W 074°11'1 1.1
2015-Mar-26 03:33N 40°38' W 074°10'1 0.7
2015-Mar-26 02:32N 40°38' W 074°09'4 4.0
2015-Mar-26 01:33N 40°40' W 074°04'0 0.1
2015-Mar-26 00:33N 40°40' W 074°04'1 1.2
2015-Mar-25 23:33N 40°39' W 074°05'2 2.3
2015-Mar-25 22:33N 40°37' W 074°03'2 1.5
2015-Mar-25 21:33N 40°39' W 074°04'7 7.1
2015-Mar-25 20:31N 40°35' W 074°12'3 1.7
2015-Mar-25 18:33N 40°38' W 074°12'7 7.5
2015-Mar-25 17:33N 40°40' W 074°02'0 0.3
2015-Mar-25 16:33N 40°40' W 074°02'5 5.2
2015-Mar-25 15:33N 40°41' W 074°09'2 2.4
2015-Mar-25 14:33N 40°38' W 074°09'0 0.4
2015-Mar-25 13:33N 40°38' W 074°10'0 0.0
2015-Mar-25 12:30N 40°38' W 074°10'0 0.0
2015-Mar-25 11:30N 40°38' W 074°10'1 1.6
2015-Mar-25 10:33N 40°39' W 074°08'1 1.5
2015-Mar-25 09:33N 40°38' W 074°10'0 0.0
2015-Mar-25 08:34N 40°38' W 074°10'0 0.0
2015-Mar-25 07:33N 40°38' W 074°10'0 0.0
2015-Mar-25 06:34N 40°38' W 074°10'2 1.6
2015-Mar-25 05:33N 40°39' W 074°08'6 6.4
2015-Mar-25 04:34N 40°41' W 074°00'2 1.6
2015-Mar-25 03:34N 40°40' W 074°01'1 1.1
2015-Mar-25 02:33N 40°41' W 074°01'6 6.1
2015-Mar-25 01:33N 40°40' W 074°09'0 0.0
2015-Mar-25 00:33N 40°40' W 074°09'0 0.0
2015-Mar-24 21:30N 40°40' W 074°09'0 0.0
2015-Mar-24 20:32N 40°40' W 074°09'1 0.8
2015-Mar-24 19:11N 40°39' W 074°09'4 6.9
2015-Mar-24 18:34N 40°38' W 074°03'3 2.6
2015-Mar-24 17:33N 40°40' W 074°00'1 1.1
2015-Mar-24 16:33N 40°40' W 074°02'0 0.0
2015-Mar-24 15:33N 40°40' W 074°02'0 0.0
2015-Mar-24 14:33N 40°40' W 074°02'0 0.1
2015-Mar-24 13:33N 40°40' W 074°02'0 0.0
2015-Mar-24 12:33N 40°40' W 074°02'0 0.5
2015-Mar-24 11:34N 40°40' W 074°02'5 5.1
2015-Mar-24 10:33N 40°39' W 074°09'4 4.3
2015-Mar-24 09:33N 40°43' W 074°07'3 1.5
2015-Mar-24 07:25N 40°40' W 074°09'0 0.0
2015-Mar-24 06:32N 40°40' W 074°09'1 0.6
2015-Mar-24 04:34N 40°38' W 074°10'5 4.7
2015-Mar-24 03:33N 40°40' W 074°04'0 0.5
2015-Mar-24 02:33N 40°40' W 074°04'1 0.6
2015-Mar-24 01:33N 40°40' W 074°05'4 3.9
2015-Mar-24 00:31N 40°38' W 074°10'0 0.0
2015-Mar-23 23:33N 40°38' W 074°10'0 0.0
2015-Mar-23 22:34N 40°38' W 074°10'0 0.0
2015-Mar-23 21:34N 40°38' W 074°10'0 0.0
2015-Mar-23 20:33N 40°38' W 074°10'0 0.0
2015-Mar-23 19:33N 40°38' W 074°10'0 0.0
2015-Mar-23 18:33N 40°38' W 074°10'0 0.0
2015-Mar-23 17:33N 40°38' W 074°10'0 0.0
2015-Mar-23 16:34N 40°38' W 074°10'0 0.0
2015-Mar-23 15:33N 40°38' W 074°10'0 0.0
2015-Mar-23 14:33N 40°38' W 074°10'0 0.0
2015-Mar-23 13:34N 40°38' W 074°10'0 0.0
2015-Mar-23 12:33N 40°38' W 074°10'0 0.0
2015-Mar-23 11:33N 40°38' W 074°10'2 2.5
2015-Mar-23 10:33N 40°39' W 074°07'1 0.5
2015-Mar-23 09:33N 40°39' W 074°06'1 0.5
2015-Mar-23 08:33N 40°39' W 074°05'1 1.3
2015-Mar-23 07:34N 40°40' W 074°04'0 0.0
2015-Mar-23 06:34N 40°40' W 074°04'5 5.0
2015-Mar-23 05:33N 40°43' W 073°59'0 0.1
2015-Mar-23 04:33N 40°43' W 073°58'4 3.7
2015-Mar-23 03:33N 40°40' W 074°03'2 2.1
2015-Mar-23 02:33N 40°41' W 074°00'0 0.0
2015-Mar-23 01:33N 40°41' W 074°00'0 0.0
2015-Mar-23 00:33N 40°41' W 074°00'1 1.2
2015-Mar-22 23:34N 40°41' W 074°01'6 6.0
2015-Mar-22 22:34N 40°46' W 073°57'8 6.3
2015-Mar-22 21:13N 40°49' W 073°47'10 4.9
2015-Mar-22 19:15N 40°57' W 073°39'4 5.8
2015-Mar-22 18:32N 40°59' W 073°34'6 5.8
2015-Mar-22 17:33N 40°60' W 073°27'6 5.6
2015-Mar-22 16:33N 41°00' W 073°20'6 5.7
2015-Mar-22 15:33N 40°60' W 073°12'5 5.2
2015-Mar-22 14:31N 40°58' W 073°05'1 1.4
2015-Mar-22 13:33N 40°57' W 073°04'0 0.1
2015-Mar-22 11:32N 40°57' W 073°04'0 0.0
2015-Mar-22 10:32N 40°57' W 073°04'0 0.0
2015-Mar-22 07:31N 40°57' W 073°04'0 0.0
2015-Mar-22 06:32N 40°57' W 073°04'0 0.1
2015-Mar-22 04:33N 40°57' W 073°04'2 2.3
2015-Mar-22 03:34N 40°59' W 073°06'6 6.5
2015-Mar-22 02:33N 40°60' W 073°15'7 7.1
2015-Mar-22 01:33N 41°00' W 073°24'7 7.3
2015-Mar-22 00:33N 40°57' W 073°33'8 7.8
2015-Mar-21 23:33N 40°54' W 073°42'7 7.3
2015-Mar-21 22:33N 40°48' W 073°48'7 6.8
2015-Mar-21 21:29N 40°46' W 073°57'5 5.3
2015-Mar-21 20:33N 40°42' W 074°00'6 5.9
2015-Mar-21 19:33N 40°39' W 074°07'  
Track history (hours):
 
Tides and Currents Weather Stations Pressure Air Temp Water Temp Dewpoint Dewpoint Depression Visibility Wind Speed Wind Dir Waves Ship Positions

Resolute

Owner: Providence Steamboat Co., PROVIDENCE, RI. More information available from US FCC via Universal Licensing System and Coast Guard Vessel Documentation Center.

Last reported at 2015-Mar-31 17:34 UTC. Time now 2015-Mar-31 18:09 UTC.
Position N 40°59' W 073°07'.

Length 30 m; draft 4 m.

Type: Tug. MMSI: 367091630.

Date/timePositionNaut miles runAvg speedWind from/ knotsBaromVisibWave heightAir tempDewpointWater temp
2015-Mar-31 17:34N 40°59' W 073°07'3 3.0
2015-Mar-31 16:32N 40°57' W 073°04'0 0.0
2015-Mar-31 15:14N 40°57' W 073°04'0 0.0
2015-Mar-31 14:29N 40°57' W 073°04'0 0.0
2015-Mar-31 13:16N 40°57' W 073°04'0 0.0
2015-Mar-31 12:33N 40°57' W 073°04'0 0.0
2015-Mar-31 10:21N 40°57' W 073°04'0 0.0
2015-Mar-31 07:08N 40°57' W 073°04'0 0.5
2015-Mar-31 06:30N 40°57' W 073°05'2 2.5
2015-Mar-31 05:34N 40°59' W 073°06'7 7.2
2015-Mar-31 04:33N 41°00' W 073°16'7 7.4
2015-Mar-31 03:33N 40°60' W 073°26'8 7.7
2015-Mar-31 02:33N 40°56' W 073°35'9 7.4
2015-Mar-31 01:23N 40°52' W 073°45'5 6.1
2015-Mar-31 00:31N 40°48' W 073°50'7 6.8
2015-Mar-30 23:33N 40°45' W 073°57'7 6.7
2015-Mar-30 22:33N 40°40' W 074°02'2 2.2
2015-Mar-30 21:34N 40°39' W 074°05'5 5.4
2015-Mar-30 20:33N 40°38' W 074°12'5 4.6
2015-Mar-30 19:32N 40°33' W 074°13'2 1.5
2015-Mar-30 18:28N 40°33' W 074°15'5 5.6
2015-Mar-30 17:33N 40°37' W 074°12'2 2.2
2015-Mar-30 16:34N 40°39' W 074°10'2 2.2
2015-Mar-30 15:33N 40°40' W 074°08'0 0.1
2015-Mar-30 14:33N 40°40' W 074°08'2 2.3
2015-Mar-30 13:33N 40°38' W 074°10'4 3.6
2015-Mar-30 12:33N 40°35' W 074°12'0 0.0
2015-Mar-30 08:15N 40°35' W 074°12'4 3.6
2015-Mar-30 07:17N 40°33' W 074°15'4 5.1
2015-Mar-30 06:32N 40°36' W 074°12'5 5.0
2015-Mar-30 05:33N 40°39' W 074°07'4 3.5
2015-Mar-30 04:33N 40°39' W 074°03'6 5.6
2015-Mar-30 03:33N 40°38' W 074°10'0 0.0
2015-Mar-30 02:33N 40°38' W 074°10'0 0.0
2015-Mar-30 01:33N 40°38' W 074°10'0 0.0
2015-Mar-30 00:33N 40°38' W 074°10'0 0.0
2015-Mar-29 23:34N 40°38' W 074°10'0 0.0
2015-Mar-29 22:33N 40°38' W 074°10'1 1.3
2015-Mar-29 21:33N 40°39' W 074°08'1 1.0
2015-Mar-29 20:34N 40°40' W 074°09'1 1.3
2015-Mar-29 19:34N 40°38' W 074°10'0 0.0
2015-Mar-29 18:33N 40°38' W 074°10'0 0.0
2015-Mar-29 17:33N 40°38' W 074°10'3 2.9
2015-Mar-29 16:33N 40°39' W 074°06'3 2.6
2015-Mar-29 15:33N 40°39' W 074°03'0 0.0
2015-Mar-29 14:33N 40°39' W 074°03'0 0.0
2015-Mar-29 13:33N 40°39' W 074°03'0 0.1
2015-Mar-29 12:34N 40°39' W 074°03'6 6.2
2015-Mar-29 11:33N 40°44' W 073°58'8 8.1
2015-Mar-29 10:33N 40°48' W 073°49'9 8.3
2015-Mar-29 09:30N 40°55' W 073°42'9 9.2
2015-Mar-29 08:33N 40°60' W 073°32'9 9.1
2015-Mar-29 07:34N 41°04' W 073°21'9 8.8
2015-Mar-29 06:33N 41°07' W 073°10'8 8.3
2015-Mar-29 05:32N 41°11' W 073°00'7 7.3
2015-Mar-29 04:34N 41°17' W 072°55'1 1.0
2015-Mar-29 03:13N 41°18' W 072°54'0 0.0
2015-Mar-29 01:23N 41°18' W 072°54'0 0.0
2015-Mar-29 00:04N 41°18' W 072°54'0 0.0
2015-Mar-28 23:14N 41°18' W 072°54'0 0.0
2015-Mar-28 21:15N 41°18' W 072°54'0 0.0
2015-Mar-28 20:27N 41°18' W 072°54'5 1.5
2015-Mar-28 17:18N 41°13' W 072°55'7 6.8
2015-Mar-28 16:15N 41°10' W 073°03'5 6.8
2015-Mar-28 15:33N 41°07' W 073°09'7 7.4
2015-Mar-28 14:33N 41°05' W 073°18'7 7.4
2015-Mar-28 13:33N 41°02' W 073°27'7 7.3
2015-Mar-28 12:33N 40°59' W 073°36'9 6.8
2015-Mar-28 11:12N 40°53' W 073°45'4 6.6
2015-Mar-28 10:33N 40°49' W 073°47'6 5.6
2015-Mar-28 09:33N 40°48' W 073°54'6 6.5
2015-Mar-28 08:33N 40°43' W 073°59'5 4.6
2015-Mar-28 07:33N 40°39' W 074°03'6 5.7
2015-Mar-28 06:33N 40°39' W 074°11'6 5.2
2015-Mar-28 05:24N 40°33' W 074°14'1 0.9
2015-Mar-28 04:29N 40°33' W 074°15'0 0.1
2015-Mar-28 03:34N 40°33' W 074°15'0 0.0
2015-Mar-28 02:33N 40°33' W 074°15'0 0.0
2015-Mar-28 01:31N 40°33' W 074°15'0 0.0
2015-Mar-28 00:33N 40°33' W 074°15'0 0.0
2015-Mar-27 23:33N 40°33' W 074°15'17141501.9
2015-Mar-27 22:25N 40°32' W 111°51'17141772.9
2015-Mar-27 21:27N 40°33' W 074°15'0 0.0
2015-Mar-27 20:32N 40°33' W 074°15'0 0.4
2015-Mar-27 19:28N 40°33' W 074°15'0 0.1
2015-Mar-27 17:33N 40°33' W 074°15'5 4.6
2015-Mar-27 16:33N 40°37' W 074°12'7 6.5
2015-Mar-27 15:33N 40°39' W 074°04'7 6.9
2015-Mar-27 14:34N 40°44' W 073°58'6 5.6
2015-Mar-27 13:27N 40°48' W 073°52'9 4.6
2015-Mar-27 11:25N 40°54' W 073°42'6 5.6
2015-Mar-27 10:22N 40°56' W 073°35'5 6.0
2015-Mar-27 09:33N 40°59' W 073°29'7 7.2
2015-Mar-27 08:33N 41°00' W 073°20'9 7.8
2015-Mar-27 07:23N 40°60' W 073°08'4 3.8
2015-Mar-27 06:25N 40°57' W 073°04'0 0.2
2015-Mar-27 05:25N 40°57' W 073°04'0 0.0
2015-Mar-27 03:27N 40°57' W 073°04'0 0.0
2015-Mar-27 02:24N 40°57' W 073°04'0 0.0
2015-Mar-27 01:09N 40°57' W 073°04'0 0.0
2015-Mar-26 20:19N 40°57' W 073°04'4 4.8
2015-Mar-26 19:31N 40°59' W 073°09'7 7.2
2015-Mar-26 18:33N 40°59' W 073°18'7 6.9
2015-Mar-26 17:33N 40°58' W 073°27'8 7.3
2015-Mar-26 16:26N 40°55' W 073°37'14 7.3
2015-Mar-26 14:32N 40°48' W 073°52'6 6.3
2015-Mar-26 13:33N 40°43' W 073°58'5 4.9
2015-Mar-26 12:33N 40°40' W 074°02'0 0.0
2015-Mar-26 11:33N 40°40' W 074°02'0 0.0
2015-Mar-26 10:33N 40°40' W 074°02'0 0.0
2015-Mar-26 09:33N 40°40' W 074°02'5 5.4
2015-Mar-26 08:34N 40°39' W 074°09'7 2.3
2015-Mar-26 05:27N 40°33' W 074°15'6 6.9
2015-Mar-26 04:33N 40°39' W 074°11'1 1.1
2015-Mar-26 03:33N 40°38' W 074°10'1 0.7
2015-Mar-26 02:32N 40°38' W 074°09'4 4.0
2015-Mar-26 01:33N 40°40' W 074°04'0 0.1
2015-Mar-26 00:33N 40°40' W 074°04'1 1.2
2015-Mar-25 23:33N 40°39' W 074°05'2 2.3
2015-Mar-25 22:33N 40°37' W 074°03'2 1.5
2015-Mar-25 21:33N 40°39' W 074°04'7 7.1
2015-Mar-25 20:31N 40°35' W 074°12'3 1.7
2015-Mar-25 18:33N 40°38' W 074°12'7 7.5
2015-Mar-25 17:33N 40°40' W 074°02'0 0.3
2015-Mar-25 16:33N 40°40' W 074°02'5 5.2
2015-Mar-25 15:33N 40°41' W 074°09'2 2.4
2015-Mar-25 14:33N 40°38' W 074°09'0 0.4
2015-Mar-25 13:33N 40°38' W 074°10'0 0.0
2015-Mar-25 12:30N 40°38' W 074°10'0 0.0
2015-Mar-25 11:30N 40°38' W 074°10'1 1.6
2015-Mar-25 10:33N 40°39' W 074°08'1 1.5
2015-Mar-25 09:33N 40°38' W 074°10'0 0.0
2015-Mar-25 08:34N 40°38' W 074°10'0 0.0
2015-Mar-25 07:33N 40°38' W 074°10'0 0.0
2015-Mar-25 06:34N 40°38' W 074°10'2 1.6
2015-Mar-25 05:33N 40°39' W 074°08'6 6.4
2015-Mar-25 04:34N 40°41' W 074°00'2 1.6
2015-Mar-25 03:34N 40°40' W 074°01'1 1.1
2015-Mar-25 02:33N 40°41' W 074°01'6 6.1
2015-Mar-25 01:33N 40°40' W 074°09'0 0.0
2015-Mar-25 00:33N 40°40' W 074°09'0 0.0
2015-Mar-24 21:30N 40°40' W 074°09'0 0.0
2015-Mar-24 20:32N 40°40' W 074°09'1 0.8
2015-Mar-24 19:11N 40°39' W 074°09'4 6.9
2015-Mar-24 18:34N 40°38' W 074°03'3 2.6
2015-Mar-24 17:33N 40°40' W 074°00'1 1.1
2015-Mar-24 16:33N 40°40' W 074°02'0 0.0
2015-Mar-24 15:33N 40°40' W 074°02'0 0.0
2015-Mar-24 14:33N 40°40' W 074°02'0 0.1
2015-Mar-24 13:33N 40°40' W 074°02'0 0.0
2015-Mar-24 12:33N 40°40' W 074°02'0 0.5
2015-Mar-24 11:34N 40°40' W 074°02'5 5.1
2015-Mar-24 10:33N 40°39' W 074°09'4 4.3
2015-Mar-24 09:33N 40°43' W 074°07'3 1.5
2015-Mar-24 07:25N 40°40' W 074°09'0 0.0
2015-Mar-24 06:32N 40°40' W 074°09'1 0.6
2015-Mar-24 04:34N 40°38' W 074°10'5 4.7
2015-Mar-24 03:33N 40°40' W 074°04'0 0.5
2015-Mar-24 02:33N 40°40' W 074°04'1 0.6
2015-Mar-24 01:33N 40°40' W 074°05'4 3.9
2015-Mar-24 00:31N 40°38' W 074°10'0 0.0
2015-Mar-23 23:33N 40°38' W 074°10'0 0.0
2015-Mar-23 22:34N 40°38' W 074°10'0 0.0
2015-Mar-23 21:34N 40°38' W 074°10'0 0.0
2015-Mar-23 20:33N 40°38' W 074°10'0 0.0
2015-Mar-23 19:33N 40°38' W 074°10'0 0.0
2015-Mar-23 18:33N 40°38' W 074°10'0 0.0
2015-Mar-23 17:33N 40°38' W 074°10'0 0.0
2015-Mar-23 16:34N 40°38' W 074°10'0 0.0
2015-Mar-23 15:33N 40°38' W 074°10'0 0.0
2015-Mar-23 14:33N 40°38' W 074°10'0 0.0
2015-Mar-23 13:34N 40°38' W 074°10'0 0.0
2015-Mar-23 12:33N 40°38' W 074°10'0 0.0
2015-Mar-23 11:33N 40°38' W 074°10'2 2.5
2015-Mar-23 10:33N 40°39' W 074°07'1 0.5
2015-Mar-23 09:33N 40°39' W 074°06'1 0.5
2015-Mar-23 08:33N 40°39' W 074°05'1 1.3
2015-Mar-23 07:34N 40°40' W 074°04'0 0.0
2015-Mar-23 06:34N 40°40' W 074°04'5 5.0
2015-Mar-23 05:33N 40°43' W 073°59'0 0.1
2015-Mar-23 04:33N 40°43' W 073°58'4 3.7
2015-Mar-23 03:33N 40°40' W 074°03'2 2.1
2015-Mar-23 02:33N 40°41' W 074°00'0 0.0
2015-Mar-23 01:33N 40°41' W 074°00'0 0.0
2015-Mar-23 00:33N 40°41' W 074°00'1 1.2
2015-Mar-22 23:34N 40°41' W 074°01'6 6.0
2015-Mar-22 22:34N 40°46' W 073°57'8 6.3
2015-Mar-22 21:13N 40°49' W 073°47'10 4.9
2015-Mar-22 19:15N 40°57' W 073°39'4 5.8
2015-Mar-22 18:32N 40°59' W 073°34'6 5.8
2015-Mar-22 17:33N 40°60' W 073°27'6 5.6
2015-Mar-22 16:33N 41°00' W 073°20'6 5.7
2015-Mar-22 15:33N 40°60' W 073°12'5 5.2
2015-Mar-22 14:31N 40°58' W 073°05'1 1.4
2015-Mar-22 13:33N 40°57' W 073°04'0 0.1
2015-Mar-22 11:32N 40°57' W 073°04'0 0.0
2015-Mar-22 10:32N 40°57' W 073°04'0 0.0
2015-Mar-22 07:31N 40°57' W 073°04'0 0.0
2015-Mar-22 06:32N 40°57' W 073°04'0 0.1
2015-Mar-22 04:33N 40°57' W 073°04'2 2.3
2015-Mar-22 03:34N 40°59' W 073°06'6 6.5
2015-Mar-22 02:33N 40°60' W 073°15'7 7.1
2015-Mar-22 01:33N 41°00' W 073°24'7 7.3
2015-Mar-22 00:33N 40°57' W 073°33'8 7.8
2015-Mar-21 23:33N 40°54' W 073°42'7 7.3
2015-Mar-21 22:33N 40°48' W 073°48'7 6.8
2015-Mar-21 21:29N 40°46' W 073°57'5 5.3
2015-Mar-21 20:33N 40°42' W 074°00'6 5.9
2015-Mar-21 19:33N 40°39' W 074°07'  

Dump ship's entire track history